Time;durP1;ratioP1;P1;durP2;ratioP2;P2;SDS_P1;SDS_P2;PMS_P1;PMS_P2;Temp;Humidity;BMP_temperature;BMP_pressure;BME280_temperature;BME280_humidity;BME280_pressure;Samples;Min_cycle;Max_cycle;Signal;HPM_P1;HPM_P2
2021/12/30 00:01:28;;;;;;;4.23;1.73;;;16.30;90.60;;;-142.21;100.00;112049.66;5111457;28;20508;-75
2021/12/30 00:03:56;;;;;;;3.17;1.90;;;16.30;90.70;;;-142.21;100.00;112049.66;5111140;28;20467;-75
2021/12/30 00:06:24;;;;;;;1.60;1.43;;;16.30;90.70;;;-142.21;100.00;112049.66;5109079;28;20603;-77
2021/12/30 00:08:57;;;;;;;2.27;1.50;;;16.30;90.50;;;-142.21;100.00;112049.66;5110678;28;20569;-77
2021/12/30 00:11:25;;;;;;;2.63;2.00;;;16.30;90.50;;;-142.21;100.00;112049.66;5098040;28;20466;-76
2021/12/30 00:13:52;;;;;;;1.70;1.60;;;16.30;90.40;;;-142.21;100.00;112049.66;5112007;28;20465;-76
2021/12/30 00:16:22;;;;;;;1.73;1.40;;;16.30;90.30;;;-142.21;100.00;112049.66;5111209;28;20453;-77
2021/12/30 00:18:50;;;;;;;1.77;1.40;;;16.30;90.40;;;-142.21;100.00;112049.66;5094152;28;20455;-78
2021/12/30 00:21:18;;;;;;;2.80;1.60;;;16.30;90.30;;;-142.21;100.00;112049.66;5095147;28;20513;-77
2021/12/30 00:23:45;;;;;;;1.43;1.33;;;16.30;90.40;;;-142.21;100.00;112049.66;5095389;28;20455;-77
2021/12/30 00:26:13;;;;;;;1.40;1.30;;;16.30;90.20;;;-142.21;100.00;112049.66;5111669;28;20515;-76
2021/12/30 00:28:40;;;;;;;2.60;1.70;;;16.40;90.20;;;-142.21;100.00;112049.66;5116022;28;20524;-77
2021/12/30 00:31:08;;;;;;;2.90;1.70;;;16.30;90.20;;;-142.21;100.00;112049.66;5115059;28;20565;-76
2021/12/30 00:33:37;;;;;;;2.93;1.63;;;16.30;90.20;;;-142.21;100.00;112049.66;5115787;28;20479;-76
2021/12/30 00:36:07;;;;;;;3.43;1.57;;;16.30;90.30;;;-142.21;100.00;112049.66;5115543;28;20529;-78
2021/12/30 00:38:35;;;;;;;1.73;1.30;;;16.20;90.30;;;-142.21;100.00;112049.66;5114985;28;20484;-77
2021/12/30 00:41:03;;;;;;;2.33;1.90;;;16.20;90.50;;;-142.21;100.00;112049.66;5096325;28;20928;-76
2021/12/30 00:43:30;;;;;;;1.67;1.57;;;16.10;90.40;;;-142.21;100.00;112049.66;5103611;28;20463;-76
2021/12/30 00:45:58;;;;;;;2.60;1.50;;;16.20;90.40;;;-142.21;100.00;112049.66;5094895;28;20869;-77
2021/12/30 00:48:26;;;;;;;2.90;1.50;;;16.10;90.40;;;-142.21;100.00;112049.66;5094753;28;20507;-77
2021/12/30 00:50:55;;;;;;;2.43;1.23;;;16.20;90.50;;;-142.21;100.00;112049.66;5094501;28;20470;-76
2021/12/30 00:53:22;;;;;;;2.40;1.40;;;16.20;90.90;;;-142.21;100.00;112049.66;5094348;28;20541;-77
2021/12/30 00:55:49;;;;;;;1.60;1.10;;;16.20;90.40;;;-142.21;100.00;112049.66;5095704;28;20474;-77
2021/12/30 00:58:16;;;;;;;2.60;1.40;;;16.30;90.30;;;-142.21;100.00;112049.66;5093640;28;20513;-77
2021/12/30 01:00:46;;;;;;;1.67;1.27;;;16.20;90.40;;;-142.21;100.00;112049.66;5093256;28;20532;-77
2021/12/30 01:03:16;;;;;;;1.70;1.50;;;16.30;90.50;;;-142.21;100.00;112049.66;5093948;28;20450;-76
2021/12/30 01:05:45;;;;;;;1.50;1.40;;;16.30;90.40;;;-142.21;100.00;112049.66;5093967;28;20547;-77
2021/12/30 01:08:15;;;;;;;3.27;1.50;;;16.30;90.30;;;-142.21;100.00;112049.66;5103045;28;20537;-77
2021/12/30 01:10:44;;;;;;;2.03;1.30;;;16.40;90.30;;;-142.21;100.00;112049.66;5097541;28;20985;-77
2021/12/30 01:13:17;;;;;;;1.93;1.50;;;16.30;90.30;;;-142.21;100.00;112049.66;5093861;28;20985;-75
2021/12/30 01:15:48;;;;;;;1.70;1.37;;;16.40;90.20;;;-142.21;100.00;112049.66;5093463;28;20467;-76
2021/12/30 01:18:29;;;;;;;1.83;1.60;;;16.40;90.20;;;-142.21;100.00;112049.66;5094497;28;20922;-76
2021/12/30 01:20:58;;;;;;;2.70;1.33;;;16.40;90.10;;;-142.21;100.00;112049.66;5095126;28;21057;-77
2021/12/30 01:23:28;;;;;;;6.27;1.50;;;16.40;90.20;;;-142.21;100.00;112049.66;5094436;28;20442;-75
2021/12/30 01:25:56;;;;;;;1.47;1.37;;;16.30;90.40;;;-142.21;100.00;112049.66;5093814;28;20468;-75
2021/12/30 01:28:24;;;;;;;1.50;1.40;;;16.30;90.30;;;-142.21;100.00;112049.66;5094154;28;20443;-77
2021/12/30 01:30:51;;;;;;;2.43;1.33;;;16.30;90.30;;;-142.21;100.00;112049.66;5094050;28;20553;-76
2021/12/30 01:33:19;;;;;;;2.00;1.10;;;16.30;90.30;;;-142.21;100.00;112049.66;5093720;28;22738;-77
2021/12/30 01:35:46;;;;;;;4.10;1.40;;;16.30;90.20;;;-142.21;100.00;112049.66;5102409;28;20882;-76
2021/12/30 01:38:16;;;;;;;1.57;1.40;;;16.40;90.30;;;-142.21;100.00;112049.66;5093794;28;20510;-75
2021/12/30 01:40:48;;;;;;;1.47;1.30;;;16.40;90.20;;;-142.21;100.00;112049.66;5112796;28;20494;-76
2021/12/30 01:43:20;;;;;;;3.17;1.70;;;16.40;90.20;;;-142.21;100.00;112049.66;5110585;28;20500;-76
2021/12/30 01:45:48;;;;;;;2.23;1.40;;;16.50;90.10;;;-142.21;100.00;112049.66;5114463;28;20531;-77
2021/12/30 01:48:15;;;;;;;3.07;1.57;;;16.50;90.00;;;-142.21;100.00;112049.66;5112943;28;20482;-76
2021/12/30 01:50:43;;;;;;;1.10;0.90;;;16.50;89.80;;;-142.21;100.00;112049.66;5112609;28;20521;-76
2021/12/30 01:53:11;;;;;;;2.63;1.30;;;16.60;89.80;;;-142.21;100.00;112049.66;5104417;28;20984;-76
2021/12/30 01:55:41;;;;;;;2.33;1.43;;;16.60;89.70;;;-142.21;100.00;112049.66;5113922;28;20438;-76
2021/12/30 01:58:11;;;;;;;1.20;1.10;;;16.60;89.40;;;-142.21;100.00;112049.66;5112858;28;20499;-76
2021/12/30 02:00:42;;;;;;;2.37;1.23;;;16.60;89.50;;;-142.21;100.00;112049.66;5113940;28;20556;-76
2021/12/30 02:03:10;;;;;;;1.37;1.10;;;16.60;89.40;;;-142.21;100.00;112049.66;5113997;27;20577;-76
2021/12/30 02:05:38;;;;;;;1.87;1.50;;;16.70;89.30;;;-142.21;100.00;112049.66;5092902;28;20446;-75
2021/12/30 02:08:06;;;;;;;1.33;1.20;;;16.70;89.20;;;-142.21;100.00;112049.66;5103443;28;20541;-76
2021/12/30 02:10:34;;;;;;;1.93;1.50;;;16.70;89.10;;;-142.21;100.00;112049.66;5112840;28;20471;-76
2021/12/30 02:13:02;;;;;;;1.33;1.20;;;16.70;88.80;;;-142.21;100.00;112049.66;5099460;28;20826;-76
2021/12/30 02:15:31;;;;;;;3.13;1.43;;;16.80;88.70;;;-142.21;100.00;112049.66;5112358;28;20475;-76
2021/12/30 02:17:59;;;;;;;1.43;1.00;;;16.80;88.20;;;-142.21;100.00;112049.66;5091558;28;20869;-77
2021/12/30 02:20:50;;;;;;;1.83;1.20;;;16.80;88.00;;;-142.21;100.00;112049.66;5113542;28;20471;-76
2021/12/30 02:23:23;;;;;;;1.47;1.37;;;16.80;88.00;;;-142.21;100.00;112049.66;5109808;27;20906;-77
2021/12/30 02:25:52;;;;;;;1.23;1.13;;;16.80;87.90;;;-142.21;100.00;112049.66;5122543;27;20497;-76
2021/12/30 02:28:24;;;;;;;1.90;1.30;;;16.80;87.60;;;-142.21;100.00;112049.66;5113116;28;20446;-77
2021/12/30 02:30:55;;;;;;;1.50;1.20;;;16.80;87.70;;;-142.21;100.00;112049.66;5112421;28;20422;-76
2021/12/30 02:33:23;;;;;;;2.70;1.33;;;16.80;87.70;;;-142.21;100.00;112049.66;5108986;28;20438;-76
2021/12/30 02:35:52;;;;;;;2.67;1.40;;;16.80;87.60;;;-142.21;100.00;112049.66;5112492;28;20534;-75
2021/12/30 02:38:21;;;;;;;3.40;1.23;;;16.80;87.70;;;-142.21;100.00;112049.66;5103265;28;20518;-76
2021/12/30 02:40:53;;;;;;;1.93;1.13;;;16.70;87.80;;;-142.21;100.00;112049.66;5073260;28;20490;-76
2021/12/30 02:43:27;;;;;;;1.97;1.27;;;16.70;87.70;;;-142.21;100.00;112049.66;5082396;28;20511;-76
2021/12/30 02:45:56;;;;;;;1.50;1.30;;;16.70;87.80;;;-142.21;100.00;112049.66;5075868;28;20427;-77
2021/12/30 02:48:26;;;;;;;1.80;1.30;;;16.70;87.80;;;-142.21;100.00;112049.66;5098756;28;21029;-76
2021/12/30 02:50:59;;;;;;;1.20;1.10;;;16.70;88.00;;;-142.21;100.00;112049.66;5110808;28;20470;-77
2021/12/30 02:53:27;;;;;;;1.40;1.30;;;16.70;88.10;;;-142.21;100.00;112049.66;5097680;28;20549;-78
2021/12/30 02:55:55;;;;;;;2.43;1.33;;;16.80;87.90;;;-142.21;100.00;112049.66;5096329;28;20470;-77
2021/12/30 02:58:24;;;;;;;2.40;1.40;;;16.70;87.90;;;-142.21;100.00;112049.66;5077975;28;20466;-77
2021/12/30 03:00:59;;;;;;;1.67;1.30;;;16.80;88.00;;;-142.21;100.00;112049.66;5096794;28;20495;-77
2021/12/30 03:03:27;;;;;;;1.90;1.20;;;16.70;88.20;;;-142.21;100.00;112049.66;5097402;28;20568;-77
2021/12/30 03:06:01;;;;;;;1.60;1.40;;;16.70;88.10;;;-142.21;100.00;112049.66;5103604;28;20447;-76
2021/12/30 03:08:30;;;;;;;3.47;1.50;;;16.80;88.00;;;-142.21;100.00;112049.66;5097874;28;20475;-77
2021/12/30 03:10:57;;;;;;;3.03;1.20;;;16.80;87.90;;;-142.21;100.00;112049.66;5091850;28;20446;-76
2021/12/30 03:13:30;;;;;;;1.80;1.27;;;16.80;87.70;;;-142.21;100.00;112049.66;5098908;28;20530;-74
2021/12/30 03:15:59;;;;;;;1.70;1.30;;;16.80;87.60;;;-142.21;100.00;112049.66;5102748;28;20547;-74
2021/12/30 03:18:27;;;;;;;1.50;1.20;;;16.70;87.70;;;-142.21;100.00;112049.66;5096815;28;20470;-77
2021/12/30 03:20:55;;;;;;;3.33;1.47;;;16.70;87.80;;;-142.21;100.00;112049.66;5094869;28;20537;-76
2021/12/30 03:23:24;;;;;;;2.37;1.30;;;16.70;87.80;;;-142.21;100.00;112049.66;5104038;28;20466;-77
2021/12/30 03:25:51;;;;;;;2.37;1.30;;;16.70;88.00;;;-142.21;100.00;112049.66;5092188;28;20454;-75
2021/12/30 03:28:20;;;;;;;1.87;1.23;;;16.70;88.10;;;-142.21;100.00;112049.66;5062065;28;20467;-77
2021/12/30 03:30:48;;;;;;;1.83;1.00;;;16.60;88.40;;;-142.21;100.00;112049.66;5091733;28;20448;-78
2021/12/30 03:33:15;;;;;;;3.10;1.13;;;16.70;88.80;;;-142.21;100.00;112049.66;5085363;28;20558;-77
2021/12/30 03:35:42;;;;;;;1.40;1.10;;;16.70;88.60;;;-142.21;100.00;112049.66;5107214;28;20468;-77
2021/12/30 03:38:10;;;;;;;3.23;1.10;;;16.70;88.70;;;-142.21;100.00;112049.66;5105589;28;20519;-78
2021/12/30 03:40:38;;;;;;;1.13;1.00;;;16.80;88.70;;;-142.21;100.00;112049.66;5095200;28;20474;-77
2021/12/30 03:43:06;;;;;;;1.53;1.10;;;16.80;88.60;;;-142.21;100.00;112049.66;5096877;28;20500;-77
2021/12/30 03:45:35;;;;;;;2.70;1.27;;;16.80;88.70;;;-142.21;100.00;112049.66;5103864;28;20853;-78
2021/12/30 03:48:03;;;;;;;3.27;1.40;;;16.80;88.80;;;-142.21;100.00;112049.66;5085177;28;20473;-76
2021/12/30 03:50:30;;;;;;;1.50;1.03;;;16.80;88.90;;;-142.21;100.00;112049.66;5092425;28;20478;-76
2021/12/30 03:53:01;;;;;;;2.13;1.20;;;16.80;89.10;;;-142.21;100.00;112049.66;5095087;28;20663;-77
2021/12/30 03:55:31;;;;;;;1.83;1.30;;;16.80;89.60;;;-142.21;100.00;112049.66;5116431;28;20446;-77
2021/12/30 03:58:00;;;;;;;1.30;1.20;;;16.80;89.30;;;-142.21;100.00;112049.66;5094918;28;20473;-76
2021/12/30 04:00:28;;;;;;;1.30;1.20;;;16.90;89.10;;;-142.21;100.00;112049.66;5108658;28;20451;-78
2021/12/30 04:02:57;;;;;;;3.13;1.20;;;16.90;88.80;;;-142.21;100.00;112049.66;5092566;28;20486;-78
2021/12/30 04:05:25;;;;;;;1.90;1.27;;;16.90;88.80;;;-142.21;100.00;112049.66;5114156;28;20445;-76
2021/12/30 04:07:53;;;;;;;1.90;1.33;;;16.80;89.00;;;-142.21;100.00;112049.66;5114743;28;20564;-77
2021/12/30 04:10:22;;;;;;;1.43;1.30;;;16.80;88.90;;;-142.21;100.00;112049.66;5109194;28;20993;-77
2021/12/30 04:12:53;;;;;;;1.57;1.13;;;16.90;88.70;;;-142.21;100.00;112049.66;5099791;28;20462;-77
2021/12/30 04:15:22;;;;;;;2.20;1.33;;;16.90;89.00;;;-142.21;100.00;112049.66;5095969;28;20446;-77
2021/12/30 04:17:49;;;;;;;1.43;1.20;;;16.80;88.90;;;-142.21;100.00;112049.66;5103119;28;20985;-78
2021/12/30 04:20:17;;;;;;;2.10;1.20;;;16.80;89.10;;;-142.21;100.00;112049.66;5095109;28;20804;-78
2021/12/30 04:22:44;;;;;;;1.10;1.10;;;16.80;89.40;;;-142.21;100.00;112049.66;5106565;28;20488;-78
2021/12/30 04:25:15;;;;;;;2.97;1.20;;;16.80;89.50;;;-142.21;100.00;112049.66;5115466;28;20438;-77
2021/12/30 04:27:43;;;;;;;2.30;1.27;;;16.80;89.70;;;-142.21;100.00;112049.66;5112518;28;20500;-77
2021/12/30 04:30:14;;;;;;;2.43;1.20;;;16.90;89.80;;;-142.21;100.00;112049.66;5094044;28;20997;-77
2021/12/30 04:32:43;;;;;;;1.93;1.30;;;16.80;89.80;;;-142.21;100.00;112049.66;5110944;28;20477;-77
2021/12/30 04:35:11;;;;;;;2.10;1.10;;;16.90;89.90;;;-142.21;100.00;112049.66;5112221;28;20473;-77
2021/12/30 04:37:39;;;;;;;2.30;1.00;;;16.90;89.80;;;-142.21;100.00;112049.66;5096794;28;20541;-77
2021/12/30 04:40:10;;;;;;;1.03;0.93;;;16.90;89.90;;;-142.21;100.00;112049.66;5114694;28;20450;-78
2021/12/30 04:42:37;;;;;;;2.23;1.27;;;16.90;90.00;;;-142.21;100.00;112049.66;5115262;28;20907;-78
2021/12/30 04:45:08;;;;;;;3.40;1.00;;;16.90;90.00;;;-142.21;100.00;112049.66;5115344;28;20473;-78
2021/12/30 04:47:37;;;;;;;1.97;1.40;;;16.90;90.10;;;-142.21;100.00;112049.66;5115227;28;20458;-78
2021/12/30 04:50:09;;;;;;;5.20;1.20;;;16.90;89.90;;;-142.21;100.00;112049.66;5115372;28;20449;-78
2021/12/30 04:52:36;;;;;;;1.13;1.00;;;16.90;90.20;;;-142.21;100.00;112049.66;5114809;28;20961;-78
2021/12/30 04:55:04;;;;;;;1.00;1.00;;;16.90;90.10;;;-142.21;100.00;112049.66;5114953;28;20964;-78
2021/12/30 04:57:32;;;;;;;1.73;1.30;;;16.90;90.20;;;-142.21;100.00;112049.66;5114375;28;20813;-78
2021/12/30 04:59:59;;;;;;;4.03;1.47;;;16.90;90.00;;;-142.21;100.00;112049.66;5114941;28;20530;-79
2021/12/30 05:02:41;;;;;;;1.33;1.23;;;16.90;90.20;;;-142.21;100.00;112049.66;5115043;28;20489;-78
2021/12/30 05:05:10;;;;;;;1.07;1.00;;;16.90;90.30;;;-142.21;100.00;112049.66;5113921;28;20469;-78
2021/12/30 05:07:37;;;;;;;1.83;1.30;;;16.90;90.50;;;-142.21;100.00;112049.66;5114480;28;20544;-78
2021/12/30 05:10:05;;;;;;;1.53;0.80;;;16.90;89.90;;;-142.21;100.00;112049.66;5115126;28;20541;-78
2021/12/30 05:12:32;;;;;;;2.20;1.00;;;16.90;90.10;;;-142.21;100.00;112049.66;5114652;28;20461;-78
2021/12/30 05:14:59;;;;;;;3.30;1.00;;;16.90;90.00;;;-142.21;100.00;112049.66;5114236;28;20498;-78
2021/12/30 05:17:29;;;;;;;0.80;0.80;;;16.90;89.90;;;-142.21;100.00;112049.66;5114664;28;20468;-78
2021/12/30 05:19:58;;;;;;;1.10;0.90;;;16.90;89.70;;;-142.21;100.00;112049.66;5114203;28;20449;-78
2021/12/30 05:22:26;;;;;;;2.43;0.83;;;17.00;89.30;;;-142.21;100.00;112049.66;5114595;28;20525;-78
2021/12/30 05:24:56;;;;;;;1.63;0.73;;;17.00;88.90;;;-142.21;100.00;112049.66;5114625;28;20446;-77
2021/12/30 05:27:23;;;;;;;0.67;0.67;;;17.00;89.60;;;-142.21;100.00;112049.66;5114458;28;20497;-78
2021/12/30 05:29:51;;;;;;;1.57;1.10;;;17.00;88.90;;;-142.21;100.00;112049.66;5114508;28;20537;-77
2021/12/30 05:32:18;;;;;;;1.40;1.10;;;17.00;88.70;;;-142.21;100.00;112049.66;5114169;28;20997;-78
2021/12/30 05:34:45;;;;;;;3.13;0.90;;;16.90;88.80;;;-142.21;100.00;112049.66;5113778;28;20548;-78
2021/12/30 05:37:12;;;;;;;1.83;0.83;;;17.00;89.00;;;-142.21;100.00;112049.66;5113662;28;20501;-78
2021/12/30 05:39:42;;;;;;;1.77;0.63;;;17.00;88.80;;;-142.21;100.00;112049.66;5113900;28;20520;-78
2021/12/30 05:42:09;;;;;;;1.10;1.00;;;17.00;88.80;;;-142.21;100.00;112049.66;5113250;28;20517;-77
2021/12/30 05:44:37;;;;;;;0.67;0.60;;;16.90;88.80;;;-142.21;100.00;112049.66;5114017;28;20479;-78
2021/12/30 05:47:05;;;;;;;1.13;0.60;;;17.00;88.90;;;-142.21;100.00;112049.66;5113930;28;20446;-78
2021/12/30 05:49:32;;;;;;;0.80;0.60;;;17.00;88.90;;;-142.21;100.00;112049.66;5113883;28;20553;-77
2021/12/30 05:51:59;;;;;;;1.20;0.63;;;17.00;88.70;;;-142.21;100.00;112049.66;5114699;28;20532;-78
2021/12/30 05:54:27;;;;;;;0.60;0.60;;;17.10;88.80;;;-142.21;100.00;112049.66;5113758;28;20852;-77
2021/12/30 05:56:55;;;;;;;0.60;0.60;;;17.10;88.70;;;-142.21;100.00;112049.66;5113703;28;20480;-77
2021/12/30 05:59:22;;;;;;;0.77;0.77;;;17.20;89.00;;;-142.21;100.00;112049.66;5113226;28;20442;-78
2021/12/30 06:01:50;;;;;;;0.60;0.60;;;17.10;88.20;;;-142.21;100.00;112049.66;5114143;28;20902;-77
2021/12/30 06:04:17;;;;;;;1.13;0.83;;;17.20;88.20;;;-142.21;100.00;112049.66;5113042;28;20446;-77
2021/12/30 06:06:44;;;;;;;0.60;0.60;;;17.20;88.20;;;-142.21;100.00;112049.66;5113655;28;20477;-77
2021/12/30 06:09:11;;;;;;;0.77;0.50;;;17.20;88.10;;;-142.21;100.00;112049.66;5113973;28;20446;-78
2021/12/30 06:11:39;;;;;;;0.70;0.70;;;17.30;87.90;;;-142.21;100.00;112049.66;5112484;28;20497;-77
2021/12/30 06:14:07;;;;;;;1.17;0.70;;;17.30;87.80;;;-142.21;100.00;112049.66;5113611;28;20448;-78
2021/12/30 06:16:35;;;;;;;0.50;0.50;;;17.20;88.20;;;-142.21;100.00;112049.66;5112510;28;20557;-77
2021/12/30 06:19:02;;;;;;;2.13;0.60;;;17.20;88.10;;;-142.21;100.00;112049.66;5113437;28;20533;-78
2021/12/30 06:21:29;;;;;;;1.57;0.70;;;17.30;87.70;;;-142.21;100.00;112049.66;5112474;28;20541;-78
2021/12/30 06:23:56;;;;;;;0.70;0.70;;;17.30;87.30;;;-142.21;100.00;112049.66;5113035;28;20489;-77
2021/12/30 06:26:24;;;;;;;0.93;0.80;;;17.40;87.40;;;-142.21;100.00;112049.66;5113583;28;20510;-78
2021/12/30 06:28:51;;;;;;;0.60;0.60;;;17.50;87.10;;;-142.21;100.00;112049.66;5112673;28;20530;-77
2021/12/30 06:31:20;;;;;;;0.73;0.73;;;17.50;86.80;;;-142.21;100.00;112049.66;5113411;28;20495;-77
2021/12/30 06:33:48;;;;;;;0.97;0.73;;;17.40;86.60;;;-142.21;100.00;112049.66;5112098;28;20458;-77
2021/12/30 06:36:17;;;;;;;1.50;0.77;;;17.40;87.70;;;-142.21;100.00;112049.66;5113419;28;20972;-77
2021/12/30 06:38:44;;;;;;;2.10;0.70;;;17.30;87.10;;;-142.21;100.00;112049.66;5112154;28;20531;-77
2021/12/30 06:41:11;;;;;;;0.70;0.70;;;17.30;87.60;;;-142.21;100.00;112049.66;5100874;28;20443;-77
2021/12/30 06:43:39;;;;;;;0.83;0.70;;;17.30;87.30;;;-142.21;100.00;112049.66;5103263;28;20509;-77
2021/12/30 06:46:08;;;;;;;0.53;0.53;;;17.30;87.00;;;-142.21;100.00;112049.66;5113060;28;20459;-77
2021/12/30 06:48:38;;;;;;;0.77;0.70;;;17.40;86.90;;;-142.21;100.00;112049.66;5112815;28;20548;-77
2021/12/30 06:51:05;;;;;;;0.40;0.40;;;17.40;87.70;;;-142.21;100.00;112049.66;5112122;28;20470;-78
2021/12/30 06:53:34;;;;;;;0.60;0.60;;;17.40;86.90;;;-142.21;100.00;112049.66;5112358;28;20540;-78
2021/12/30 06:56:01;;;;;;;0.70;0.70;;;17.40;87.00;;;-142.21;100.00;112049.66;5112386;28;20997;-77
2021/12/30 06:58:30;;;;;;;0.50;0.50;;;17.40;86.90;;;-142.21;100.00;112049.66;5113101;28;20461;-75
2021/12/30 07:00:57;;;;;;;0.53;0.53;;;17.40;86.80;;;-142.21;100.00;112049.66;5111993;28;20462;-76
2021/12/30 07:03:25;;;;;;;1.23;0.70;;;17.40;86.50;;;-142.21;100.00;112049.66;5113253;28;20485;-76
2021/12/30 07:05:54;;;;;;;0.80;0.80;;;17.40;86.70;;;-142.21;100.00;112049.66;5112639;28;20996;-76
2021/12/30 07:08:22;;;;;;;0.50;0.50;;;17.40;86.80;;;-142.21;100.00;112049.66;5111962;28;20457;-78
2021/12/30 07:10:51;;;;;;;0.70;0.70;;;17.30;86.80;;;-142.21;100.00;112049.66;5112843;28;20493;-78
2021/12/30 07:13:18;;;;;;;1.20;0.50;;;17.30;86.70;;;-142.21;100.00;112049.66;5092415;28;20457;-76
2021/12/30 07:15:45;;;;;;;0.60;0.60;;;17.40;86.30;;;-142.21;100.00;112049.66;5093097;28;20485;-76
2021/12/30 07:18:12;;;;;;;1.60;0.60;;;17.40;86.40;;;-142.21;100.00;112049.66;5112049;28;20545;-76
2021/12/30 07:20:40;;;;;;;0.80;0.70;;;17.50;86.20;;;-142.21;100.00;112049.66;5112779;28;20851;-77
2021/12/30 07:23:10;;;;;;;1.30;0.60;;;17.40;86.40;;;-142.21;100.00;112049.66;5112400;28;20830;-76
2021/12/30 07:25:37;;;;;;;0.63;0.60;;;17.50;86.20;;;-142.21;100.00;112049.66;5112485;28;20552;-78
2021/12/30 07:28:06;;;;;;;0.67;0.67;;;17.50;86.00;;;-142.21;100.00;112049.66;5113799;28;20496;-79
2021/12/30 07:30:34;;;;;;;2.37;0.67;;;17.50;86.10;;;-142.21;100.00;112049.66;5115580;28;20476;-76
2021/12/30 07:33:06;;;;;;;1.60;1.13;;;17.50;85.90;;;-142.21;100.00;112049.66;5116330;28;21000;-76
2021/12/30 07:35:34;;;;;;;1.50;1.03;;;17.40;85.80;;;-142.21;100.00;112049.66;5109375;28;20473;-77
2021/12/30 07:38:01;;;;;;;0.50;0.50;;;17.40;85.90;;;-142.21;100.00;112049.66;5115727;28;20564;-75
2021/12/30 07:40:31;;;;;;;0.63;0.63;;;17.40;86.10;;;-142.21;100.00;112049.66;5110914;28;20467;-78
2021/12/30 07:42:58;;;;;;;0.60;0.60;;;17.50;85.90;;;-142.21;100.00;112049.66;5091190;28;20515;-76
2021/12/30 07:45:26;;;;;;;0.70;0.70;;;17.50;85.50;;;-142.21;100.00;112049.66;5113442;28;20524;-77
2021/12/30 07:47:54;;;;;;;1.90;0.83;;;17.50;85.40;;;-142.21;100.00;112049.66;5115752;28;20548;-76
2021/12/30 07:50:22;;;;;;;1.73;0.90;;;17.50;85.40;;;-142.21;100.00;112049.66;5116751;28;20434;-77
2021/12/30 07:52:50;;;;;;;0.70;0.70;;;17.50;85.50;;;-142.21;100.00;112049.66;5108647;28;20459;-77
2021/12/30 07:55:18;;;;;;;0.80;0.80;;;17.60;85.50;;;-142.21;100.00;112049.66;5095532;28;20946;-76
2021/12/30 07:57:47;;;;;;;1.77;0.43;;;17.60;85.40;;;-142.21;100.00;112049.66;5099891;28;20516;-77
2021/12/30 08:00:18;;;;;;;2.20;0.70;;;17.70;85.40;;;-142.21;100.00;112049.66;5102611;28;20532;-78
2021/12/30 08:02:46;;;;;;;0.53;0.53;;;17.60;85.20;;;-142.21;100.00;112049.66;5115709;28;20469;-78
2021/12/30 08:05:16;;;;;;;0.50;0.40;;;17.60;85.50;;;-142.21;100.00;112049.66;5116150;28;20545;-78
2021/12/30 08:07:46;;;;;;;2.50;0.80;;;17.60;85.60;;;-142.21;100.00;112049.66;5105886;28;20468;-77
2021/12/30 08:10:15;;;;;;;1.30;0.70;;;17.70;85.70;;;-142.21;100.00;112049.66;5100150;28;20450;-78
2021/12/30 08:12:46;;;;;;;0.53;0.53;;;17.70;85.40;;;-142.21;100.00;112049.66;5091889;28;20524;-78
2021/12/30 08:15:15;;;;;;;2.23;0.60;;;17.70;85.50;;;-142.21;100.00;112049.66;5076741;28;20520;-78
2021/12/30 08:17:44;;;;;;;1.93;0.50;;;17.70;85.60;;;-142.21;100.00;112049.66;5113633;28;20550;-79
2021/12/30 08:20:14;;;;;;;0.50;0.50;;;17.70;85.60;;;-142.21;100.00;112049.66;5096902;28;20470;-79
2021/12/30 08:22:41;;;;;;;0.50;0.50;;;17.60;85.90;;;-142.21;100.00;112049.66;5075727;28;20566;-78
2021/12/30 08:25:11;;;;;;;1.70;0.60;;;17.60;86.10;;;-142.21;100.00;112049.66;5079020;28;20525;-77
2021/12/30 08:27:39;;;;;;;1.10;0.73;;;17.60;86.30;;;-142.21;100.00;112049.66;5115261;28;20854;-78
2021/12/30 08:30:12;;;;;;;0.80;0.63;;;17.50;86.90;;;-142.21;100.00;112049.66;5101165;28;20450;-78
2021/12/30 08:32:40;;;;;;;1.03;0.80;;;17.50;87.20;;;-142.21;100.00;112049.66;5113524;28;20487;-79
2021/12/30 08:35:09;;;;;;;1.27;0.70;;;17.40;87.50;;;-142.21;100.00;112049.66;5102880;28;20530;-79
2021/12/30 08:37:37;;;;;;;0.80;0.50;;;17.50;87.50;;;-142.21;100.00;112049.66;5104026;28;20536;-77
2021/12/30 08:40:07;;;;;;;0.93;0.60;;;17.50;87.50;;;-142.21;100.00;112049.66;5115502;28;20517;-78
2021/12/30 08:42:38;;;;;;;0.70;0.70;;;17.50;88.00;;;-142.21;100.00;112049.66;5099332;28;20512;-77
2021/12/30 08:45:09;;;;;;;1.47;0.67;;;17.50;88.00;;;-142.21;100.00;112049.66;5094715;28;20474;-77
2021/12/30 08:47:38;;;;;;;0.50;0.50;;;17.50;88.20;;;-142.21;100.00;112049.66;5094942;28;20500;-77
2021/12/30 08:50:08;;;;;;;1.40;0.50;;;17.50;88.10;;;-142.21;100.00;112049.66;5099331;28;20474;-77
2021/12/30 08:52:35;;;;;;;1.37;0.70;;;17.50;88.00;;;-142.21;100.00;112049.66;5078166;28;20525;-76
2021/12/30 08:55:04;;;;;;;1.23;0.70;;;17.50;87.90;;;-142.21;100.00;112049.66;5089959;28;20497;-77
2021/12/30 08:57:31;;;;;;;1.03;0.50;;;17.50;87.80;;;-142.21;100.00;112049.66;5093919;28;20485;-77
2021/12/30 09:00:00;;;;;;;1.47;0.60;;;17.50;88.00;;;-142.21;100.00;112049.66;5098874;28;20473;-77
2021/12/30 09:02:28;;;;;;;1.50;0.63;;;17.50;88.30;;;-142.21;100.00;112049.66;5115080;28;20454;-77
2021/12/30 09:04:55;;;;;;;1.50;0.60;;;17.50;88.20;;;-142.21;100.00;112049.66;5110142;28;20502;-78
2021/12/30 09:07:23;;;;;;;1.00;0.70;;;17.60;88.00;;;-142.21;100.00;112049.66;5097649;28;20474;-78
2021/12/30 09:09:50;;;;;;;0.60;0.60;;;17.60;87.50;;;-142.21;100.00;112049.66;5093674;28;20502;-76
2021/12/30 09:12:18;;;;;;;0.67;0.57;;;17.70;87.40;;;-142.21;100.00;112049.66;5093652;28;20458;-77
2021/12/30 09:14:49;;;;;;;0.50;0.50;;;17.80;87.00;;;-142.21;100.00;112049.66;5114729;28;20437;-77
2021/12/30 09:17:16;;;;;;;1.10;0.70;;;17.80;86.90;;;-142.21;100.00;112049.66;5098300;28;20481;-77
2021/12/30 09:19:44;;;;;;;0.87;0.67;;;18.00;86.50;;;-142.21;100.00;112049.66;5093767;28;20473;-77
2021/12/30 09:22:12;;;;;;;1.00;0.80;;;18.00;85.90;;;-142.21;100.00;112049.66;5095575;28;20567;-76
2021/12/30 09:24:39;;;;;;;0.93;0.73;;;18.00;85.40;;;-142.21;100.00;112049.66;5101680;28;20485;-76
2021/12/30 09:27:06;;;;;;;1.57;0.53;;;18.10;85.80;;;-142.21;100.00;112049.66;5086271;28;20538;-75
2021/12/30 09:29:33;;;;;;;0.70;0.70;;;18.20;85.00;;;-142.21;100.00;112049.66;5086286;28;20474;-76
2021/12/30 09:32:00;;;;;;;1.27;0.80;;;18.30;84.10;;;-142.21;100.00;112049.66;5090391;28;20521;-76
2021/12/30 09:34:27;;;;;;;1.00;0.70;;;18.50;83.90;;;-142.21;100.00;112049.66;5086008;28;20439;-75
2021/12/30 09:36:56;;;;;;;0.60;0.53;;;18.50;83.80;;;-142.21;100.00;112049.66;5103499;28;20457;-75
2021/12/30 09:39:23;;;;;;;1.27;0.60;;;18.60;82.90;;;-142.21;100.00;112049.66;5109382;28;20885;-76
2021/12/30 09:41:50;;;;;;;0.57;0.53;;;18.60;83.10;;;-142.21;100.00;112049.66;5113716;28;20476;-76
2021/12/30 09:44:21;;;;;;;1.27;0.50;;;18.70;82.70;;;-142.21;100.00;112049.66;5112772;28;20509;-76
2021/12/30 09:46:49;;;;;;;1.80;0.63;;;18.60;82.90;;;-142.21;100.00;112049.66;5113421;28;20446;-76
2021/12/30 09:49:20;;;;;;;1.00;0.80;;;18.60;82.90;;;-142.21;100.00;112049.66;5111547;28;20545;-75
2021/12/30 09:51:48;;;;;;;0.97;0.70;;;18.60;82.70;;;-142.21;100.00;112049.66;5112849;28;20438;-75
2021/12/30 09:54:17;;;;;;;1.30;0.70;;;18.60;82.70;;;-142.21;100.00;112049.66;5113196;28;20521;-75
2021/12/30 09:56:45;;;;;;;1.50;0.80;;;18.60;82.60;;;-142.21;100.00;112049.66;5112830;28;20917;-76
2021/12/30 09:59:13;;;;;;;1.40;0.70;;;18.60;82.20;;;-142.21;100.00;112049.66;5107409;28;20474;-74